sensor_id;sensor_type;location;lat;lon;timestamp;P1;durP1;ratioP1;P2;durP2;ratioP2
43580;SDS011;29175;51.030;4.606;2023-08-08T00:02:09;10.70;;;3.20;;
43580;SDS011;29175;51.030;4.606;2023-08-08T00:04:36;12.20;;;2.75;;
43580;SDS011;29175;51.030;4.606;2023-08-08T00:07:02;13.15;;;2.60;;
43580;SDS011;29175;51.030;4.606;2023-08-08T00:09:28;8.82;;;3.70;;
43580;SDS011;29175;51.030;4.606;2023-08-08T00:11:54;12.35;;;2.75;;
43580;SDS011;29175;51.030;4.606;2023-08-08T00:14:19;6.63;;;2.50;;
43580;SDS011;29175;51.030;4.606;2023-08-08T00:16:45;11.10;;;3.05;;
43580;SDS011;29175;51.030;4.606;2023-08-08T00:19:11;7.60;;;2.72;;
43580;SDS011;29175;51.030;4.606;2023-08-08T00:21:37;10.75;;;2.70;;
43580;SDS011;29175;51.030;4.606;2023-08-08T00:24:02;6.97;;;2.72;;
43580;SDS011;29175;51.030;4.606;2023-08-08T00:26:28;8.80;;;2.88;;
43580;SDS011;29175;51.030;4.606;2023-08-08T00:28:54;7.20;;;3.10;;
43580;SDS011;29175;51.030;4.606;2023-08-08T00:31:20;7.60;;;2.90;;
43580;SDS011;29175;51.030;4.606;2023-08-08T00:33:45;11.50;;;3.40;;
43580;SDS011;29175;51.030;4.606;2023-08-08T00:36:12;8.60;;;3.22;;
43580;SDS011;29175;51.030;4.606;2023-08-08T00:38:38;9.30;;;2.97;;
43580;SDS011;29175;51.030;4.606;2023-08-08T00:41:04;12.77;;;3.40;;
43580;SDS011;29175;51.030;4.606;2023-08-08T00:43:30;12.65;;;3.00;;
43580;SDS011;29175;51.030;4.606;2023-08-08T00:45:56;8.40;;;3.05;;
43580;SDS011;29175;51.030;4.606;2023-08-08T00:48:23;7.15;;;3.00;;
43580;SDS011;29175;51.030;4.606;2023-08-08T00:50:49;10.35;;;3.13;;
43580;SDS011;29175;51.030;4.606;2023-08-08T00:53:17;11.48;;;3.45;;
43580;SDS011;29175;51.030;4.606;2023-08-08T00:55:45;9.70;;;3.05;;
43580;SDS011;29175;51.030;4.606;2023-08-08T00:58:12;11.98;;;3.20;;
43580;SDS011;29175;51.030;4.606;2023-08-08T01:00:38;12.82;;;3.88;;
43580;SDS011;29175;51.030;4.606;2023-08-08T01:03:04;11.07;;;3.60;;
43580;SDS011;29175;51.030;4.606;2023-08-08T01:05:33;12.25;;;3.75;;
43580;SDS011;29175;51.030;4.606;2023-08-08T01:08:07;12.43;;;3.97;;
43580;SDS011;29175;51.030;4.606;2023-08-08T01:10:34;10.23;;;3.40;;
43580;SDS011;29175;51.030;4.606;2023-08-08T01:13:04;8.63;;;3.25;;
43580;SDS011;29175;51.030;4.606;2023-08-08T01:15:36;21.20;;;3.63;;
43580;SDS011;29175;51.030;4.606;2023-08-08T01:18:03;13.55;;;4.43;;
43580;SDS011;29175;51.030;4.606;2023-08-08T01:20:31;11.38;;;3.28;;
43580;SDS011;29175;51.030;4.606;2023-08-08T01:25:39;14.75;;;3.60;;
43580;SDS011;29175;51.030;4.606;2023-08-08T01:28:06;13.20;;;3.78;;
43580;SDS011;29175;51.030;4.606;2023-08-08T01:30:32;13.50;;;3.83;;
43580;SDS011;29175;51.030;4.606;2023-08-08T01:32:58;11.82;;;3.80;;
43580;SDS011;29175;51.030;4.606;2023-08-08T01:35:24;18.27;;;4.20;;
43580;SDS011;29175;51.030;4.606;2023-08-08T01:37:54;18.70;;;4.28;;
43580;SDS011;29175;51.030;4.606;2023-08-08T01:40:29;9.85;;;3.50;;
43580;SDS011;29175;51.030;4.606;2023-08-08T01:42:56;12.98;;;4.00;;
43580;SDS011;29175;51.030;4.606;2023-08-08T01:45:22;13.85;;;3.83;;
43580;SDS011;29175;51.030;4.606;2023-08-08T01:47:52;22.15;;;3.80;;
43580;SDS011;29175;51.030;4.606;2023-08-08T01:50:19;17.10;;;3.95;;
43580;SDS011;29175;51.030;4.606;2023-08-08T01:52:46;16.65;;;5.35;;
43580;SDS011;29175;51.030;4.606;2023-08-08T01:55:12;15.25;;;4.15;;
43580;SDS011;29175;51.030;4.606;2023-08-08T01:57:38;16.67;;;3.72;;
43580;SDS011;29175;51.030;4.606;2023-08-08T02:00:05;25.02;;;4.35;;
43580;SDS011;29175;51.030;4.606;2023-08-08T02:02:31;10.98;;;3.58;;
43580;SDS011;29175;51.030;4.606;2023-08-08T02:04:57;25.45;;;4.65;;
43580;SDS011;29175;51.030;4.606;2023-08-08T02:07:23;14.18;;;4.63;;
43580;SDS011;29175;51.030;4.606;2023-08-08T02:09:49;19.70;;;4.60;;
43580;SDS011;29175;51.030;4.606;2023-08-08T02:12:16;19.58;;;4.47;;
43580;SDS011;29175;51.030;4.606;2023-08-08T02:14:44;14.73;;;4.07;;
43580;SDS011;29175;51.030;4.606;2023-08-08T02:17:09;13.70;;;4.43;;
43580;SDS011;29175;51.030;4.606;2023-08-08T02:19:36;19.08;;;4.40;;
43580;SDS011;29175;51.030;4.606;2023-08-08T02:22:02;18.52;;;4.57;;
43580;SDS011;29175;51.030;4.606;2023-08-08T02:24:28;17.95;;;4.00;;
43580;SDS011;29175;51.030;4.606;2023-08-08T02:26:53;17.20;;;5.28;;
43580;SDS011;29175;51.030;4.606;2023-08-08T02:29:19;20.48;;;4.55;;
43580;SDS011;29175;51.030;4.606;2023-08-08T02:31:45;12.80;;;4.88;;
43580;SDS011;29175;51.030;4.606;2023-08-08T02:34:11;15.45;;;3.88;;
43580;SDS011;29175;51.030;4.606;2023-08-08T02:36:37;15.35;;;4.75;;
43580;SDS011;29175;51.030;4.606;2023-08-08T02:39:03;18.20;;;4.60;;
43580;SDS011;29175;51.030;4.606;2023-08-08T02:41:29;18.08;;;4.60;;
43580;SDS011;29175;51.030;4.606;2023-08-08T02:43:55;18.25;;;5.30;;
43580;SDS011;29175;51.030;4.606;2023-08-08T02:46:22;17.05;;;5.13;;
43580;SDS011;29175;51.030;4.606;2023-08-08T02:48:47;17.20;;;4.82;;
43580;SDS011;29175;51.030;4.606;2023-08-08T02:51:13;12.70;;;4.22;;
43580;SDS011;29175;51.030;4.606;2023-08-08T02:53:39;27.48;;;4.50;;
43580;SDS011;29175;51.030;4.606;2023-08-08T02:56:05;17.10;;;4.70;;
43580;SDS011;29175;51.030;4.606;2023-08-08T02:58:30;21.52;;;5.30;;
43580;SDS011;29175;51.030;4.606;2023-08-08T03:00:56;21.65;;;4.60;;
43580;SDS011;29175;51.030;4.606;2023-08-08T03:03:22;20.60;;;5.10;;
43580;SDS011;29175;51.030;4.606;2023-08-08T03:05:49;22.17;;;5.28;;
43580;SDS011;29175;51.030;4.606;2023-08-08T03:08:14;21.63;;;4.82;;
43580;SDS011;29175;51.030;4.606;2023-08-08T03:10:40;17.17;;;5.43;;
43580;SDS011;29175;51.030;4.606;2023-08-08T03:13:06;18.38;;;4.43;;
43580;SDS011;29175;51.030;4.606;2023-08-08T03:15:32;15.40;;;4.90;;
43580;SDS011;29175;51.030;4.606;2023-08-08T03:17:58;16.17;;;4.95;;
43580;SDS011;29175;51.030;4.606;2023-08-08T03:20:23;20.40;;;5.15;;
43580;SDS011;29175;51.030;4.606;2023-08-08T03:22:49;21.55;;;5.00;;
43580;SDS011;29175;51.030;4.606;2023-08-08T03:25:15;19.65;;;5.03;;
43580;SDS011;29175;51.030;4.606;2023-08-08T03:27:41;16.13;;;5.05;;
43580;SDS011;29175;51.030;4.606;2023-08-08T03:30:07;16.17;;;4.20;;
43580;SDS011;29175;51.030;4.606;2023-08-08T03:32:33;15.25;;;4.80;;
43580;SDS011;29175;51.030;4.606;2023-08-08T03:34:59;15.30;;;4.75;;
43580;SDS011;29175;51.030;4.606;2023-08-08T03:37:27;20.23;;;4.50;;
43580;SDS011;29175;51.030;4.606;2023-08-08T03:39:53;18.08;;;4.95;;
43580;SDS011;29175;51.030;4.606;2023-08-08T03:42:19;19.40;;;5.13;;
43580;SDS011;29175;51.030;4.606;2023-08-08T03:44:46;21.88;;;5.57;;
43580;SDS011;29175;51.030;4.606;2023-08-08T03:47:12;17.05;;;5.38;;
43580;SDS011;29175;51.030;4.606;2023-08-08T03:49:37;19.25;;;4.70;;
43580;SDS011;29175;51.030;4.606;2023-08-08T03:52:03;17.80;;;5.40;;
43580;SDS011;29175;51.030;4.606;2023-08-08T03:54:30;23.05;;;5.90;;
43580;SDS011;29175;51.030;4.606;2023-08-08T03:56:56;26.80;;;5.93;;
43580;SDS011;29175;51.030;4.606;2023-08-08T03:59:25;25.67;;;5.53;;
43580;SDS011;29175;51.030;4.606;2023-08-08T04:01:51;18.60;;;4.95;;
43580;SDS011;29175;51.030;4.606;2023-08-08T04:04:16;26.30;;;5.43;;
43580;SDS011;29175;51.030;4.606;2023-08-08T04:06:42;19.60;;;5.25;;
43580;SDS011;29175;51.030;4.606;2023-08-08T04:09:08;23.65;;;5.90;;
43580;SDS011;29175;51.030;4.606;2023-08-08T04:11:34;29.75;;;5.90;;
43580;SDS011;29175;51.030;4.606;2023-08-08T04:14:01;21.83;;;5.55;;
43580;SDS011;29175;51.030;4.606;2023-08-08T04:16:27;26.70;;;5.35;;
43580;SDS011;29175;51.030;4.606;2023-08-08T04:18:54;32.47;;;6.22;;
43580;SDS011;29175;51.030;4.606;2023-08-08T04:21:20;23.30;;;6.07;;
43580;SDS011;29175;51.030;4.606;2023-08-08T04:23:46;26.65;;;5.85;;
43580;SDS011;29175;51.030;4.606;2023-08-08T04:26:11;21.50;;;6.35;;
43580;SDS011;29175;51.030;4.606;2023-08-08T04:28:37;32.17;;;6.95;;
43580;SDS011;29175;51.030;4.606;2023-08-08T04:31:03;25.90;;;7.20;;
43580;SDS011;29175;51.030;4.606;2023-08-08T04:33:29;23.60;;;5.80;;
43580;SDS011;29175;51.030;4.606;2023-08-08T04:35:54;22.60;;;6.72;;
43580;SDS011;29175;51.030;4.606;2023-08-08T04:38:20;23.80;;;6.45;;
43580;SDS011;29175;51.030;4.606;2023-08-08T04:40:46;27.70;;;6.95;;
43580;SDS011;29175;51.030;4.606;2023-08-08T04:43:12;31.08;;;7.22;;
43580;SDS011;29175;51.030;4.606;2023-08-08T04:45:37;27.67;;;6.63;;
43580;SDS011;29175;51.030;4.606;2023-08-08T04:48:03;23.10;;;6.30;;
43580;SDS011;29175;51.030;4.606;2023-08-08T04:50:29;22.45;;;5.93;;
43580;SDS011;29175;51.030;4.606;2023-08-08T04:52:55;21.25;;;6.10;;
43580;SDS011;29175;51.030;4.606;2023-08-08T04:55:21;22.13;;;5.88;;
43580;SDS011;29175;51.030;4.606;2023-08-08T04:57:46;21.38;;;5.65;;
43580;SDS011;29175;51.030;4.606;2023-08-08T05:00:13;20.85;;;5.65;;
43580;SDS011;29175;51.030;4.606;2023-08-08T05:02:39;36.47;;;7.38;;
43580;SDS011;29175;51.030;4.606;2023-08-08T05:05:06;26.02;;;6.60;;
43580;SDS011;29175;51.030;4.606;2023-08-08T05:07:32;19.02;;;5.85;;
43580;SDS011;29175;51.030;4.606;2023-08-08T05:10:01;22.58;;;5.90;;
43580;SDS011;29175;51.030;4.606;2023-08-08T05:12:27;26.00;;;6.38;;
43580;SDS011;29175;51.030;4.606;2023-08-08T05:14:53;23.02;;;6.10;;
43580;SDS011;29175;51.030;4.606;2023-08-08T05:17:19;20.25;;;5.40;;
43580;SDS011;29175;51.030;4.606;2023-08-08T05:19:44;20.73;;;5.82;;
43580;SDS011;29175;51.030;4.606;2023-08-08T05:22:10;16.60;;;5.45;;
43580;SDS011;29175;51.030;4.606;2023-08-08T05:24:35;21.77;;;5.75;;
43580;SDS011;29175;51.030;4.606;2023-08-08T05:27:01;16.05;;;5.15;;
43580;SDS011;29175;51.030;4.606;2023-08-08T05:29:28;19.08;;;5.45;;
43580;SDS011;29175;51.030;4.606;2023-08-08T05:31:54;16.38;;;5.60;;
43580;SDS011;29175;51.030;4.606;2023-08-08T05:34:20;17.52;;;5.72;;
43580;SDS011;29175;51.030;4.606;2023-08-08T05:36:46;26.85;;;6.20;;
43580;SDS011;29175;51.030;4.606;2023-08-08T05:39:12;22.65;;;5.72;;
43580;SDS011;29175;51.030;4.606;2023-08-08T05:41:38;23.67;;;5.38;;
43580;SDS011;29175;51.030;4.606;2023-08-08T05:44:04;18.40;;;5.47;;
43580;SDS011;29175;51.030;4.606;2023-08-08T05:46:30;21.55;;;5.45;;
43580;SDS011;29175;51.030;4.606;2023-08-08T05:48:55;19.88;;;5.43;;
43580;SDS011;29175;51.030;4.606;2023-08-08T05:51:21;27.48;;;5.65;;
43580;SDS011;29175;51.030;4.606;2023-08-08T05:53:47;16.13;;;4.65;;
43580;SDS011;29175;51.030;4.606;2023-08-08T05:56:13;24.17;;;5.05;;
43580;SDS011;29175;51.030;4.606;2023-08-08T05:58:38;16.58;;;5.25;;
43580;SDS011;29175;51.030;4.606;2023-08-08T06:01:04;24.50;;;5.38;;
43580;SDS011;29175;51.030;4.606;2023-08-08T06:03:34;16.33;;;4.90;;
43580;SDS011;29175;51.030;4.606;2023-08-08T06:06:00;25.55;;;5.30;;
43580;SDS011;29175;51.030;4.606;2023-08-08T06:08:26;18.42;;;4.28;;
43580;SDS011;29175;51.030;4.606;2023-08-08T06:10:52;21.00;;;4.55;;
43580;SDS011;29175;51.030;4.606;2023-08-08T06:13:17;21.55;;;4.68;;
43580;SDS011;29175;51.030;4.606;2023-08-08T06:15:44;19.95;;;4.35;;
43580;SDS011;29175;51.030;4.606;2023-08-08T06:18:10;18.73;;;4.75;;
43580;SDS011;29175;51.030;4.606;2023-08-08T06:20:35;19.13;;;3.90;;
43580;SDS011;29175;51.030;4.606;2023-08-08T06:23:01;12.65;;;4.47;;
43580;SDS011;29175;51.030;4.606;2023-08-08T06:25:27;13.63;;;4.25;;
43580;SDS011;29175;51.030;4.606;2023-08-08T06:27:53;19.48;;;4.68;;
43580;SDS011;29175;51.030;4.606;2023-08-08T06:30:19;14.18;;;3.78;;
43580;SDS011;29175;51.030;4.606;2023-08-08T06:32:45;13.50;;;3.63;;
43580;SDS011;29175;51.030;4.606;2023-08-08T06:35:11;17.58;;;3.60;;
43580;SDS011;29175;51.030;4.606;2023-08-08T06:37:37;15.93;;;4.18;;
43580;SDS011;29175;51.030;4.606;2023-08-08T06:40:03;27.65;;;4.90;;
43580;SDS011;29175;51.030;4.606;2023-08-08T06:42:29;16.33;;;4.75;;
43580;SDS011;29175;51.030;4.606;2023-08-08T06:44:55;14.82;;;3.53;;
43580;SDS011;29175;51.030;4.606;2023-08-08T06:47:21;19.17;;;3.25;;
43580;SDS011;29175;51.030;4.606;2023-08-08T06:49:48;15.57;;;3.70;;
43580;SDS011;29175;51.030;4.606;2023-08-08T06:52:13;20.35;;;3.65;;
43580;SDS011;29175;51.030;4.606;2023-08-08T06:54:39;16.70;;;3.60;;
43580;SDS011;29175;51.030;4.606;2023-08-08T06:57:05;14.88;;;3.25;;
43580;SDS011;29175;51.030;4.606;2023-08-08T06:59:30;24.17;;;3.47;;
43580;SDS011;29175;51.030;4.606;2023-08-08T07:01:56;16.95;;;3.60;;
43580;SDS011;29175;51.030;4.606;2023-08-08T07:04:22;19.92;;;3.28;;
43580;SDS011;29175;51.030;4.606;2023-08-08T07:06:47;16.50;;;3.30;;
43580;SDS011;29175;51.030;4.606;2023-08-08T07:09:13;14.93;;;3.30;;
43580;SDS011;29175;51.030;4.606;2023-08-08T07:11:39;13.75;;;2.63;;
43580;SDS011;29175;51.030;4.606;2023-08-08T07:14:05;18.02;;;3.10;;
43580;SDS011;29175;51.030;4.606;2023-08-08T07:16:31;13.20;;;3.20;;
43580;SDS011;29175;51.030;4.606;2023-08-08T07:18:58;14.57;;;3.17;;
43580;SDS011;29175;51.030;4.606;2023-08-08T07:21:24;16.02;;;4.05;;
43580;SDS011;29175;51.030;4.606;2023-08-08T07:23:50;14.98;;;3.22;;
43580;SDS011;29175;51.030;4.606;2023-08-08T07:26:16;12.85;;;3.28;;
43580;SDS011;29175;51.030;4.606;2023-08-08T07:28:41;12.40;;;3.42;;
43580;SDS011;29175;51.030;4.606;2023-08-08T07:31:07;14.77;;;3.00;;
43580;SDS011;29175;51.030;4.606;2023-08-08T07:33:33;11.90;;;2.90;;
43580;SDS011;29175;51.030;4.606;2023-08-08T07:35:58;33.20;;;4.00;;
43580;SDS011;29175;51.030;4.606;2023-08-08T07:38:24;10.18;;;3.15;;
43580;SDS011;29175;51.030;4.606;2023-08-08T07:40:50;11.93;;;3.05;;
43580;SDS011;29175;51.030;4.606;2023-08-08T07:43:15;17.75;;;3.03;;
43580;SDS011;29175;51.030;4.606;2023-08-08T07:45:41;10.45;;;3.08;;
43580;SDS011;29175;51.030;4.606;2023-08-08T07:48:07;19.13;;;4.53;;
43580;SDS011;29175;51.030;4.606;2023-08-08T07:50:33;14.73;;;3.20;;
43580;SDS011;29175;51.030;4.606;2023-08-08T07:52:59;14.25;;;3.78;;
43580;SDS011;29175;51.030;4.606;2023-08-08T07:55:24;12.98;;;3.22;;
43580;SDS011;29175;51.030;4.606;2023-08-08T07:57:50;14.23;;;3.45;;
43580;SDS011;29175;51.030;4.606;2023-08-08T08:00:16;14.18;;;3.13;;
43580;SDS011;29175;51.030;4.606;2023-08-08T08:02:43;15.00;;;3.05;;
43580;SDS011;29175;51.030;4.606;2023-08-08T08:05:10;11.10;;;3.10;;
43580;SDS011;29175;51.030;4.606;2023-08-08T08:07:36;16.27;;;3.30;;
43580;SDS011;29175;51.030;4.606;2023-08-08T08:10:04;13.82;;;3.63;;
43580;SDS011;29175;51.030;4.606;2023-08-08T08:12:33;18.55;;;3.25;;
43580;SDS011;29175;51.030;4.606;2023-08-08T08:15:00;11.57;;;3.17;;
43580;SDS011;29175;51.030;4.606;2023-08-08T08:17:26;19.60;;;3.42;;
43580;SDS011;29175;51.030;4.606;2023-08-08T08:19:53;9.27;;;3.03;;
43580;SDS011;29175;51.030;4.606;2023-08-08T08:22:19;8.15;;;3.30;;
43580;SDS011;29175;51.030;4.606;2023-08-08T08:24:45;16.98;;;3.92;;
43580;SDS011;29175;51.030;4.606;2023-08-08T08:27:11;17.73;;;3.67;;
43580;SDS011;29175;51.030;4.606;2023-08-08T08:29:37;12.48;;;2.97;;
43580;SDS011;29175;51.030;4.606;2023-08-08T08:32:03;13.05;;;3.40;;
43580;SDS011;29175;51.030;4.606;2023-08-08T08:34:29;17.20;;;3.22;;
43580;SDS011;29175;51.030;4.606;2023-08-08T08:36:55;18.17;;;3.58;;
43580;SDS011;29175;51.030;4.606;2023-08-08T08:39:21;10.57;;;3.67;;
43580;SDS011;29175;51.030;4.606;2023-08-08T08:41:48;14.40;;;3.72;;
43580;SDS011;29175;51.030;4.606;2023-08-08T08:44:16;14.57;;;3.53;;
43580;SDS011;29175;51.030;4.606;2023-08-08T08:46:41;11.82;;;3.30;;
43580;SDS011;29175;51.030;4.606;2023-08-08T08:49:08;14.18;;;3.22;;
43580;SDS011;29175;51.030;4.606;2023-08-08T08:51:36;10.70;;;2.92;;
43580;SDS011;29175;51.030;4.606;2023-08-08T08:54:02;13.70;;;3.28;;
43580;SDS011;29175;51.030;4.606;2023-08-08T08:56:28;15.15;;;3.03;;
43580;SDS011;29175;51.030;4.606;2023-08-08T08:58:55;18.52;;;4.15;;
43580;SDS011;29175;51.030;4.606;2023-08-08T09:01:21;16.55;;;3.70;;
43580;SDS011;29175;51.030;4.606;2023-08-08T09:03:48;17.75;;;3.60;;
43580;SDS011;29175;51.030;4.606;2023-08-08T09:06:14;10.55;;;3.70;;
43580;SDS011;29175;51.030;4.606;2023-08-08T09:08:41;10.55;;;3.63;;
43580;SDS011;29175;51.030;4.606;2023-08-08T09:11:07;13.25;;;3.58;;
43580;SDS011;29175;51.030;4.606;2023-08-08T09:13:37;16.08;;;3.40;;
43580;SDS011;29175;51.030;4.606;2023-08-08T09:16:04;12.88;;;3.10;;
43580;SDS011;29175;51.030;4.606;2023-08-08T09:18:31;12.45;;;3.63;;
43580;SDS011;29175;51.030;4.606;2023-08-08T09:20:58;8.98;;;3.30;;
43580;SDS011;29175;51.030;4.606;2023-08-08T09:23:24;11.07;;;3.45;;
43580;SDS011;29175;51.030;4.606;2023-08-08T09:25:49;10.43;;;3.88;;
43580;SDS011;29175;51.030;4.606;2023-08-08T09:28:15;14.10;;;3.40;;
43580;SDS011;29175;51.030;4.606;2023-08-08T09:30:41;15.52;;;4.00;;
43580;SDS011;29175;51.030;4.606;2023-08-08T09:33:08;14.52;;;3.13;;
43580;SDS011;29175;51.030;4.606;2023-08-08T09:35:34;14.48;;;2.80;;
43580;SDS011;29175;51.030;4.606;2023-08-08T09:38:02;10.80;;;3.25;;
43580;SDS011;29175;51.030;4.606;2023-08-08T09:40:29;10.20;;;3.05;;
43580;SDS011;29175;51.030;4.606;2023-08-08T09:42:56;10.90;;;3.22;;
43580;SDS011;29175;51.030;4.606;2023-08-08T09:45:23;12.98;;;3.17;;
43580;SDS011;29175;51.030;4.606;2023-08-08T09:47:52;10.60;;;3.20;;
43580;SDS011;29175;51.030;4.606;2023-08-08T09:50:18;12.40;;;3.20;;
43580;SDS011;29175;51.030;4.606;2023-08-08T09:52:45;9.05;;;3.40;;
43580;SDS011;29175;51.030;4.606;2023-08-08T09:55:12;8.00;;;2.78;;
43580;SDS011;29175;51.030;4.606;2023-08-08T09:57:38;10.75;;;3.67;;
43580;SDS011;29175;51.030;4.606;2023-08-08T10:00:05;9.88;;;3.45;;
43580;SDS011;29175;51.030;4.606;2023-08-08T10:02:35;12.73;;;3.90;;
43580;SDS011;29175;51.030;4.606;2023-08-08T10:05:02;10.45;;;4.20;;
43580;SDS011;29175;51.030;4.606;2023-08-08T10:07:29;21.83;;;12.73;;
43580;SDS011;29175;51.030;4.606;2023-08-08T10:09:55;24.35;;;5.65;;
43580;SDS011;29175;51.030;4.606;2023-08-08T10:12:23;16.42;;;4.93;;
43580;SDS011;29175;51.030;4.606;2023-08-08T10:14:51;10.07;;;3.67;;
43580;SDS011;29175;51.030;4.606;2023-08-08T10:17:17;8.20;;;3.30;;
43580;SDS011;29175;51.030;4.606;2023-08-08T10:19:53;14.85;;;4.00;;
43580;SDS011;29175;51.030;4.606;2023-08-08T10:22:21;13.65;;;3.97;;
43580;SDS011;29175;51.030;4.606;2023-08-08T10:24:50;12.48;;;3.80;;
43580;SDS011;29175;51.030;4.606;2023-08-08T10:27:26;7.40;;;3.47;;
43580;SDS011;29175;51.030;4.606;2023-08-08T10:30:03;8.18;;;3.45;;
43580;SDS011;29175;51.030;4.606;2023-08-08T10:32:37;6.38;;;3.67;;
43580;SDS011;29175;51.030;4.606;2023-08-08T10:35:07;11.80;;;4.47;;
43580;SDS011;29175;51.030;4.606;2023-08-08T10:37:34;11.25;;;4.13;;
43580;SDS011;29175;51.030;4.606;2023-08-08T10:40:02;8.63;;;3.40;;
43580;SDS011;29175;51.030;4.606;2023-08-08T10:44:59;8.93;;;3.20;;
43580;SDS011;29175;51.030;4.606;2023-08-08T10:47:31;11.65;;;4.13;;
43580;SDS011;29175;51.030;4.606;2023-08-08T10:55:30;6.22;;;3.65;;
43580;SDS011;29175;51.030;4.606;2023-08-08T10:57:58;11.27;;;3.65;;
43580;SDS011;29175;51.030;4.606;2023-08-08T11:00:32;7.65;;;2.90;;
43580;SDS011;29175;51.030;4.606;2023-08-08T11:02:59;8.05;;;3.58;;
43580;SDS011;29175;51.030;4.606;2023-08-08T11:05:28;6.90;;;3.60;;
43580;SDS011;29175;51.030;4.606;2023-08-08T11:07:55;5.60;;;3.30;;
43580;SDS011;29175;51.030;4.606;2023-08-08T11:10:21;10.95;;;3.60;;
43580;SDS011;29175;51.030;4.606;2023-08-08T11:15:39;6.22;;;3.63;;
43580;SDS011;29175;51.030;4.606;2023-08-08T11:18:05;8.55;;;3.25;;
43580;SDS011;29175;51.030;4.606;2023-08-08T11:20:31;8.43;;;2.80;;
43580;SDS011;29175;51.030;4.606;2023-08-08T11:22:58;7.13;;;2.90;;
43580;SDS011;29175;51.030;4.606;2023-08-08T11:25:25;6.75;;;2.70;;
43580;SDS011;29175;51.030;4.606;2023-08-08T11:27:52;6.15;;;2.30;;
43580;SDS011;29175;51.030;4.606;2023-08-08T11:30:18;5.15;;;2.65;;
43580;SDS011;29175;51.030;4.606;2023-08-08T11:32:45;4.60;;;2.50;;
43580;SDS011;29175;51.030;4.606;2023-08-08T11:35:12;5.93;;;2.45;;
43580;SDS011;29175;51.030;4.606;2023-08-08T11:37:41;4.65;;;2.42;;
43580;SDS011;29175;51.030;4.606;2023-08-08T11:40:07;6.03;;;2.72;;
43580;SDS011;29175;51.030;4.606;2023-08-08T11:42:33;5.03;;;2.30;;
43580;SDS011;29175;51.030;4.606;2023-08-08T11:44:59;4.63;;;2.17;;
43580;SDS011;29175;51.030;4.606;2023-08-08T11:47:25;7.20;;;2.28;;
43580;SDS011;29175;51.030;4.606;2023-08-08T11:49:51;4.90;;;2.38;;
43580;SDS011;29175;51.030;4.606;2023-08-08T11:52:20;6.57;;;2.90;;
43580;SDS011;29175;51.030;4.606;2023-08-08T11:54:50;6.50;;;2.72;;
43580;SDS011;29175;51.030;4.606;2023-08-08T11:57:17;8.05;;;2.60;;
43580;SDS011;29175;51.030;4.606;2023-08-08T11:59:43;4.20;;;2.55;;
43580;SDS011;29175;51.030;4.606;2023-08-08T12:02:09;8.13;;;2.58;;
43580;SDS011;29175;51.030;4.606;2023-08-08T12:04:36;5.97;;;2.58;;
43580;SDS011;29175;51.030;4.606;2023-08-08T12:07:02;8.18;;;2.47;;
43580;SDS011;29175;51.030;4.606;2023-08-08T12:09:32;6.20;;;2.20;;
43580;SDS011;29175;51.030;4.606;2023-08-08T12:12:01;4.97;;;2.15;;
43580;SDS011;29175;51.030;4.606;2023-08-08T12:14:28;5.63;;;2.20;;
43580;SDS011;29175;51.030;4.606;2023-08-08T12:16:54;4.72;;;2.08;;
43580;SDS011;29175;51.030;4.606;2023-08-08T12:19:24;8.95;;;2.33;;
43580;SDS011;29175;51.030;4.606;2023-08-08T12:21:51;6.85;;;2.25;;
43580;SDS011;29175;51.030;4.606;2023-08-08T12:24:20;29.02;;;2.72;;
43580;SDS011;29175;51.030;4.606;2023-08-08T12:26:47;6.60;;;2.00;;
43580;SDS011;29175;51.030;4.606;2023-08-08T12:29:13;8.43;;;2.50;;
43580;SDS011;29175;51.030;4.606;2023-08-08T12:31:39;5.38;;;2.03;;
43580;SDS011;29175;51.030;4.606;2023-08-08T12:34:05;5.97;;;2.22;;
43580;SDS011;29175;51.030;4.606;2023-08-08T12:36:31;6.03;;;2.92;;
43580;SDS011;29175;51.030;4.606;2023-08-08T12:38:57;4.20;;;2.08;;
43580;SDS011;29175;51.030;4.606;2023-08-08T12:41:23;8.23;;;2.35;;
43580;SDS011;29175;51.030;4.606;2023-08-08T12:43:50;4.97;;;1.90;;
43580;SDS011;29175;51.030;4.606;2023-08-08T12:46:16;5.07;;;2.10;;
43580;SDS011;29175;51.030;4.606;2023-08-08T12:48:41;5.32;;;1.70;;
43580;SDS011;29175;51.030;4.606;2023-08-08T12:51:09;6.18;;;1.92;;
43580;SDS011;29175;51.030;4.606;2023-08-08T12:53:34;7.70;;;1.90;;
43580;SDS011;29175;51.030;4.606;2023-08-08T12:56:00;3.42;;;1.70;;
43580;SDS011;29175;51.030;4.606;2023-08-08T12:58:27;8.27;;;1.75;;
43580;SDS011;29175;51.030;4.606;2023-08-08T13:00:53;3.83;;;1.60;;
43580;SDS011;29175;51.030;4.606;2023-08-08T13:03:18;7.70;;;1.90;;
43580;SDS011;29175;51.030;4.606;2023-08-08T13:05:45;8.35;;;1.52;;
43580;SDS011;29175;51.030;4.606;2023-08-08T13:08:11;3.08;;;1.40;;
43580;SDS011;29175;51.030;4.606;2023-08-08T13:10:38;3.15;;;1.50;;
43580;SDS011;29175;51.030;4.606;2023-08-08T13:13:04;4.35;;;1.30;;
43580;SDS011;29175;51.030;4.606;2023-08-08T13:15:30;4.20;;;1.30;;
43580;SDS011;29175;51.030;4.606;2023-08-08T13:17:56;4.75;;;1.55;;
43580;SDS011;29175;51.030;4.606;2023-08-08T13:20:26;2.55;;;1.20;;
43580;SDS011;29175;51.030;4.606;2023-08-08T13:22:53;3.38;;;1.60;;
43580;SDS011;29175;51.030;4.606;2023-08-08T13:25:19;5.25;;;1.70;;
43580;SDS011;29175;51.030;4.606;2023-08-08T13:27:45;8.00;;;1.60;;
43580;SDS011;29175;51.030;4.606;2023-08-08T13:30:12;3.97;;;1.45;;
43580;SDS011;29175;51.030;4.606;2023-08-08T13:32:40;2.45;;;1.38;;
43580;SDS011;29175;51.030;4.606;2023-08-08T13:35:06;2.22;;;1.20;;
43580;SDS011;29175;51.030;4.606;2023-08-08T13:37:32;3.97;;;1.42;;
43580;SDS011;29175;51.030;4.606;2023-08-08T13:39:57;6.15;;;1.42;;
43580;SDS011;29175;51.030;4.606;2023-08-08T13:42:23;5.53;;;1.20;;
43580;SDS011;29175;51.030;4.606;2023-08-08T13:44:49;3.45;;;1.50;;
43580;SDS011;29175;51.030;4.606;2023-08-08T13:47:14;4.30;;;1.70;;
43580;SDS011;29175;51.030;4.606;2023-08-08T13:49:40;6.78;;;1.73;;
43580;SDS011;29175;51.030;4.606;2023-08-08T13:52:06;2.67;;;1.45;;
43580;SDS011;29175;51.030;4.606;2023-08-08T13:54:31;5.40;;;1.35;;
43580;SDS011;29175;51.030;4.606;2023-08-08T13:56:57;1.80;;;1.10;;
43580;SDS011;29175;51.030;4.606;2023-08-08T13:59:23;3.58;;;1.45;;
43580;SDS011;29175;51.030;4.606;2023-08-08T14:01:49;4.32;;;1.58;;
43580;SDS011;29175;51.030;4.606;2023-08-08T14:04:15;1.50;;;1.15;;
43580;SDS011;29175;51.030;4.606;2023-08-08T14:06:41;2.22;;;1.15;;
43580;SDS011;29175;51.030;4.606;2023-08-08T14:09:06;6.32;;;1.50;;
43580;SDS011;29175;51.030;4.606;2023-08-08T14:11:32;6.22;;;1.33;;
43580;SDS011;29175;51.030;4.606;2023-08-08T14:13:58;7.43;;;1.52;;
43580;SDS011;29175;51.030;4.606;2023-08-08T14:16:23;4.10;;;1.60;;
43580;SDS011;29175;51.030;4.606;2023-08-08T14:18:49;1.35;;;1.02;;
43580;SDS011;29175;51.030;4.606;2023-08-08T14:21:15;2.38;;;1.25;;
43580;SDS011;29175;51.030;4.606;2023-08-08T14:23:41;5.63;;;1.40;;
43580;SDS011;29175;51.030;4.606;2023-08-08T14:26:06;8.25;;;1.40;;
43580;SDS011;29175;51.030;4.606;2023-08-08T14:28:32;5.40;;;1.52;;
43580;SDS011;29175;51.030;4.606;2023-08-08T14:30:58;3.85;;;1.58;;
43580;SDS011;29175;51.030;4.606;2023-08-08T14:33:23;3.15;;;1.23;;
43580;SDS011;29175;51.030;4.606;2023-08-08T14:35:49;2.50;;;1.20;;
43580;SDS011;29175;51.030;4.606;2023-08-08T14:38:15;2.90;;;1.48;;
43580;SDS011;29175;51.030;4.606;2023-08-08T14:40:41;5.68;;;1.58;;
43580;SDS011;29175;51.030;4.606;2023-08-08T14:43:06;3.08;;;1.70;;
43580;SDS011;29175;51.030;4.606;2023-08-08T14:45:36;3.05;;;1.17;;
43580;SDS011;29175;51.030;4.606;2023-08-08T14:48:03;7.40;;;1.73;;